createdAt,value
2023-01-15T00:00:19.253Z,98886.56
2023-01-15T00:01:34.985Z,98886.56
2023-01-15T00:02:43.677Z,98885.72
2023-01-15T00:03:49.233Z,98889.91
2023-01-15T00:04:54.995Z,98881.06
2023-01-15T00:06:07.408Z,98880.97
2023-01-15T00:07:11.130Z,98877.31
2023-01-15T00:08:14.924Z,98875.53
2023-01-15T00:09:18.741Z,98867.63
2023-01-15T00:10:22.400Z,98872.72
2023-01-15T00:11:25.951Z,98868.28
2023-01-15T00:12:29.515Z,98868.19
2023-01-15T00:13:33.190Z,98876.09
2023-01-15T00:14:36.846Z,98870.84
2023-01-15T00:15:40.874Z,98867.28
2023-01-15T00:16:45.508Z,98870.94
2023-01-15T00:17:49.212Z,98870.09
2023-01-15T00:18:56.317Z,98871.03
2023-01-15T00:19:59.805Z,98867.53
2023-01-15T00:21:07.331Z,98862.19
2023-01-15T00:22:10.758Z,98857.75
2023-01-15T00:23:34.393Z,98860.47
2023-01-15T00:24:56.366Z,98858.59
2023-01-15T00:26:18.458Z,98852.38
2023-01-15T00:27:40.714Z,98856.75
2023-01-15T00:28:44.353Z,98843.56
2023-01-15T00:29:47.908Z,98842.63
2023-01-15T00:30:51.533Z,98849.59
2023-01-15T00:32:01.931Z,98849.59
2023-01-15T00:33:05.589Z,98847.91
2023-01-15T00:34:09.585Z,98846.97
2023-01-15T00:35:18.015Z,98851.19
2023-01-15T00:36:23.212Z,98854.19
2023-01-15T00:37:27.268Z,98849.69
2023-01-15T00:38:30.918Z,98848.66
2023-01-15T00:39:35.752Z,98843.38
2023-01-15T00:40:39.270Z,98842.63
2023-01-15T00:41:42.843Z,98847.81
2023-01-15T00:42:53.890Z,98846.97
2023-01-15T00:43:58.359Z,98839.91
2023-01-15T00:45:09.987Z,98837.19
2023-01-15T00:46:13.985Z,98833.59
2023-01-15T00:47:17.459Z,98826.53
2023-01-15T00:48:20.945Z,98832.66
2023-01-15T00:49:24.788Z,98832.59
2023-01-15T00:50:28.439Z,98830.81
2023-01-15T00:51:32.675Z,98829.03
2023-01-15T00:52:36.476Z,98829.13
2023-01-15T00:53:40.348Z,98829.88
2023-01-15T00:54:46.107Z,98821.22
2023-01-15T00:55:49.759Z,98815.84
2023-01-15T00:56:53.298Z,98813.22
2023-01-15T00:57:56.789Z,98805.41
2023-01-15T00:59:04.075Z,98802.75
2023-01-15T01:00:11.816Z,98802.75
2023-01-15T01:01:16.177Z,98801.81
2023-01-15T01:02:20.470Z,98803.59
2023-01-15T01:03:25.261Z,98806.16
2023-01-15T01:04:28.831Z,98793.81
2023-01-15T01:05:32.794Z,98791.09
2023-01-15T01:06:36.424Z,98786.56
2023-01-15T01:07:40.239Z,98790.16
2023-01-15T01:08:47.546Z,98786.50
2023-01-15T01:09:52.283Z,98777.75
2023-01-15T01:11:14.852Z,98781.97
2023-01-15T01:12:22.015Z,98782.72
2023-01-15T01:13:25.836Z,98793.19
2023-01-15T01:14:29.761Z,98781.72
2023-01-15T01:15:38.183Z,98783.41
2023-01-15T01:16:42.456Z,98775.56
2023-01-15T01:17:46.290Z,98773.81
2023-01-15T01:18:50.088Z,98772.03
2023-01-15T01:19:53.844Z,98770.31
2023-01-15T01:20:57.553Z,98773.81
2023-01-15T01:22:01.186Z,98772.03
2023-01-15T01:23:04.840Z,98767.59
2023-01-15T01:24:10.416Z,98766.81
2023-01-15T01:25:13.895Z,98765.03
2023-01-15T01:26:17.647Z,98765.97
2023-01-15T01:27:21.393Z,98758.91
2023-01-15T01:28:25.116Z,98762.78
2023-01-15T01:29:28.860Z,98753.00
2023-01-15T01:30:32.461Z,98761.06
2023-01-15T01:31:36.221Z,98757.56
2023-01-15T01:32:40.295Z,98756.72
2023-01-15T01:33:44.557Z,98746.97
2023-01-15T01:34:48.137Z,98751.56
2023-01-15T01:35:51.979Z,98748.81
2023-01-15T01:36:55.747Z,98742.81
2023-01-15T01:37:59.483Z,98748.91
2023-01-15T01:39:05.421Z,98741.31
2023-01-15T01:40:10.092Z,98742.91
2023-01-15T01:41:13.560Z,98736.69
2023-01-15T01:42:18.964Z,98735.16
2023-01-15T01:43:29.617Z,98731.50
2023-01-15T01:44:33.187Z,98725.31
2023-01-15T01:45:36.844Z,98728.88
2023-01-15T01:46:40.370Z,98730.38
2023-01-15T01:47:44.715Z,98729.44
2023-01-15T01:48:52.531Z,98723.25
2023-01-15T01:50:06.677Z,98722.97
2023-01-15T01:51:10.528Z,98717.69
2023-01-15T01:52:25.447Z,98713.94
2023-01-15T01:53:32.254Z,98715.44
2023-01-15T01:54:38.835Z,98719.97
2023-01-15T01:55:42.898Z,98708.31
2023-01-15T01:56:49.949Z,98708.19
2023-01-15T01:57:59.924Z,98704.44
2023-01-15T01:59:07.109Z,98693.88
2023-01-15T02:00:12.608Z,98696.25
2023-01-15T02:01:17.842Z,98700.56
2023-01-15T02:02:23.484Z,98702.19
2023-01-15T02:03:35.706Z,98692.28
2023-01-15T02:04:40.746Z,98690.34
2023-01-15T02:05:52.717Z,98694.34
2023-01-15T02:06:58.958Z,98691.66
2023-01-15T02:08:02.494Z,98688.06
2023-01-15T02:09:06.797Z,98686.91
2023-01-15T02:10:19.761Z,98691.91
2023-01-15T02:11:25.033Z,98687.38
2023-01-15T02:12:39.293Z,98695.88
2023-01-15T02:14:14.162Z,98686.06
2023-01-15T02:15:54.369Z,98690.03
2023-01-15T02:17:20.572Z,98684.66
2023-01-15T02:18:38.183Z,98679.19
2023-01-15T02:19:59.306Z,98676.81
2023-01-15T02:21:24.702Z,98674.00
2023-01-15T02:22:44.981Z,98673.91
2023-01-15T02:24:13.488Z,98673.59
2023-01-15T02:25:31.134Z,98674.06
2023-01-15T02:27:26.585Z,98670.56
2023-01-15T02:28:42.693Z,98672.66
2023-01-15T02:29:53.136Z,98674.78
2023-01-15T02:31:27.110Z,98665.59
2023-01-15T02:32:40.968Z,98662.00
2023-01-15T02:33:56.466Z,98656.56
2023-01-15T02:35:29.548Z,98651.84
2023-01-15T02:36:40.453Z,98655.22
2023-01-15T02:37:52.186Z,98661.97
2023-01-15T02:39:02.429Z,98662.63
2023-01-15T02:40:07.602Z,98655.56
2023-01-15T02:41:18.061Z,98662.41
2023-01-15T02:42:25.999Z,98669.38
2023-01-15T02:43:36.822Z,98653.53
2023-01-15T02:44:49.775Z,98655.88
2023-01-15T02:45:59.333Z,98667.19
2023-01-15T02:47:06.366Z,98660.03
2023-01-15T02:48:15.655Z,98657.19
2023-01-15T02:49:23.836Z,98657.91
2023-01-15T02:50:36.503Z,98659.53
2023-01-15T02:52:06.622Z,98654.25
2023-01-15T02:53:20.688Z,98648.97
2023-01-15T02:54:30.508Z,98646.22
2023-01-15T02:55:43.215Z,98640.72
2023-01-15T02:56:49.999Z,98649.28
2023-01-15T02:58:00.129Z,98651.72
2023-01-15T02:59:12.313Z,98643.72
2023-01-15T03:02:14.111Z,98644.63
2023-01-15T03:03:33.770Z,98649.00
2023-01-15T03:05:01.027Z,98641.81
2023-01-15T03:06:31.908Z,98649.84
2023-01-15T03:07:46.903Z,98648.44
2023-01-15T03:08:50.844Z,98649.59
2023-01-15T03:09:57.577Z,98656.47
2023-01-15T03:11:19.201Z,98652.78
2023-01-15T03:12:34.544Z,98644.63
2023-01-15T03:14:09.244Z,98650.34
2023-01-15T03:15:40.577Z,98639.03
2023-01-15T03:16:56.681Z,98641.25
2023-01-15T03:18:06.026Z,98645.69
2023-01-15T03:19:47.165Z,98644.75
2023-01-15T03:20:58.876Z,98639.56
2023-01-15T03:22:33.516Z,98631.88
2023-01-15T03:23:45.768Z,98643.34
2023-01-15T03:25:22.079Z,98633.75
2023-01-15T03:26:26.051Z,98634.59
2023-01-15T03:27:29.910Z,98636.28
2023-01-15T03:28:38.251Z,98627.44
2023-01-15T03:29:55.837Z,98631.44
2023-01-15T03:31:00.234Z,98630.91
2023-01-15T03:32:03.988Z,98623.81
2023-01-15T03:33:11.780Z,98630.69
2023-01-15T03:34:15.828Z,98623.72
2023-01-15T03:35:49.945Z,98619.28
2023-01-15T03:36:53.672Z,98624.44
2023-01-15T03:37:57.229Z,98622.66
2023-01-15T03:39:01.341Z,98626.06
2023-01-15T03:40:06.953Z,98628.69
2023-01-15T03:41:44.503Z,98625.41
2023-01-15T03:43:31.737Z,98618.22
2023-01-15T03:45:13.112Z,98625.22
2023-01-15T03:46:42.637Z,98624.25
2023-01-15T03:48:00.739Z,98622.34
2023-01-15T03:49:29.340Z,98625.22
2023-01-15T03:50:38.459Z,98625.09
2023-01-15T03:52:07.131Z,98630.19
2023-01-15T03:53:38.242Z,98627.44
2023-01-15T03:55:05.108Z,98629.97
2023-01-15T03:56:38.348Z,98615.19
2023-01-15T03:58:11.983Z,98619.22
2023-01-15T03:59:30.950Z,98621.53
2023-01-15T04:00:52.616Z,98614.34
2023-01-15T04:01:57.943Z,98612.44
2023-01-15T04:03:06.257Z,98621.84
2023-01-15T04:04:14.081Z,98611.91
2023-01-15T04:05:18.820Z,98612.44
2023-01-15T04:06:25.848Z,98612.09
2023-01-15T04:07:31.560Z,98610.31
2023-01-15T04:08:40.818Z,98606.63
2023-01-15T04:09:44.566Z,98608.22
2023-01-15T04:10:59.619Z,98610.75
2023-01-15T04:12:03.537Z,98599.34
2023-01-15T04:13:07.564Z,98596.56
2023-01-15T04:14:15.074Z,98599.03
2023-01-15T04:15:19.288Z,98599.88
2023-01-15T04:16:32.654Z,98604.00
2023-01-15T04:17:36.206Z,98589.81
2023-01-15T04:18:39.836Z,98589.81
2023-01-15T04:19:44.462Z,98587.06
2023-01-15T04:20:48.999Z,98580.69
2023-01-15T04:21:52.564Z,98579.53
2023-01-15T04:22:56.147Z,98571.50
2023-01-15T04:23:59.764Z,98574.84
2023-01-15T04:25:05.506Z,98570.41
2023-01-15T04:26:09.289Z,98565.97
2023-01-15T04:27:13.380Z,98565.88
2023-01-15T04:28:17.105Z,98559.75
2023-01-15T04:29:21.101Z,98556.97
2023-01-15T04:30:24.669Z,98559.75
2023-01-15T04:31:28.159Z,98559.34
2023-01-15T04:32:31.694Z,98563.88
2023-01-15T04:33:35.249Z,98553.63
2023-01-15T04:34:38.814Z,98557.84
2023-01-15T04:35:42.315Z,98551.72
2023-01-15T04:36:48.271Z,98549.19
2023-01-15T04:37:59.874Z,98549.78
2023-01-15T04:39:06.243Z,98545.59
2023-01-15T04:40:30.753Z,98542.09
2023-01-15T04:41:53.168Z,98546.84
2023-01-15T04:43:15.744Z,98534.81
2023-01-15T04:44:19.473Z,98536.63
2023-01-15T04:45:23.555Z,98537.66
2023-01-15T04:46:27.100Z,98534.06
2023-01-15T04:47:31.937Z,98525.28
2023-01-15T04:48:35.555Z,98528.69
2023-01-15T04:49:39.429Z,98525.09
2023-01-15T04:50:43.392Z,98523.59
2023-01-15T04:51:47.454Z,98524.34
2023-01-15T04:52:51.509Z,98520.22
2023-01-15T04:53:55.039Z,98520.22
2023-01-15T04:55:01.575Z,98522.88
2023-01-15T04:56:06.559Z,98511.34
2023-01-15T04:57:12.701Z,98518.00
2023-01-15T04:58:16.361Z,98517.16
2023-01-15T04:59:27.006Z,98508.38
2023-01-15T05:00:31.061Z,98508.38
2023-01-15T05:01:35.432Z,98518.13
2023-01-15T05:02:39.172Z,98513.75
2023-01-15T05:03:43.174Z,98506.59
2023-01-15T05:04:47.477Z,98503.19
2023-01-15T05:05:51.452Z,98507.63
2023-01-15T05:06:55.376Z,98512.19
2023-01-15T05:07:59.112Z,98506.06
2023-01-15T05:09:05.253Z,98511.13
2023-01-15T05:10:10.231Z,98506.91
2023-01-15T05:11:14.241Z,98497.88
2023-01-15T05:12:18.541Z,98503.28
2023-01-15T05:13:22.593Z,98495.38
2023-01-15T05:14:26.499Z,98502.44
2023-01-15T05:15:30.253Z,98495.38
2023-01-15T05:16:36.243Z,98490.81
2023-01-15T05:17:39.878Z,98493.34
2023-01-15T05:18:45.616Z,98490.81
2023-01-15T05:19:49.638Z,98481.94
2023-01-15T05:20:53.167Z,98489.03
2023-01-15T05:21:56.934Z,98486.59
2023-01-15T05:23:01.041Z,98484.78
2023-01-15T05:24:08.954Z,98479.63
2023-01-15T05:25:12.606Z,98483.75
2023-01-15T05:26:17.015Z,98479.19
2023-01-15T05:27:20.912Z,98480.22
2023-01-15T05:28:24.900Z,98473.38
2023-01-15T05:29:28.808Z,98471.56
2023-01-15T05:30:32.336Z,98482.78
2023-01-15T05:31:36.156Z,98478.44
2023-01-15T05:32:40.132Z,98474.84
2023-01-15T05:33:46.844Z,98483.63
2023-01-15T05:34:50.654Z,98475.81
2023-01-15T05:35:54.503Z,98466.91
2023-01-15T05:36:58.037Z,98468.59
2023-01-15T05:38:01.734Z,98470.41
2023-01-15T05:39:06.261Z,98478.94
2023-01-15T05:40:10.802Z,98473.53
2023-01-15T05:41:37.295Z,98466.47
2023-01-15T05:42:40.726Z,98471.75
2023-01-15T05:43:44.591Z,98469.00
2023-01-15T05:44:48.214Z,98466.34
2023-01-15T05:45:51.903Z,98460.22
2023-01-15T05:47:00.232Z,98468.03
2023-01-15T05:48:04.046Z,98465.03
2023-01-15T05:49:18.962Z,98464.00
2023-01-15T05:50:23.546Z,98458.59
2023-01-15T05:51:27.177Z,98464.13
2023-01-15T05:52:31.335Z,98460.50
2023-01-15T05:53:35.105Z,98464.84
2023-01-15T05:54:39.241Z,98457.63
2023-01-15T05:55:42.964Z,98459.44
2023-01-15T05:56:47.886Z,98438.38
2023-01-15T05:57:51.591Z,98452.22
2023-01-15T05:58:55.482Z,98454.97
2023-01-15T05:59:59.908Z,98451.50
2023-01-15T06:01:08.851Z,98446.94
2023-01-15T06:02:12.889Z,98457.19
2023-01-15T06:03:17.690Z,98448.28
2023-01-15T06:04:25.241Z,98446.59
2023-01-15T06:05:30.326Z,98449.13
2023-01-15T06:06:36.191Z,98451.78
2023-01-15T06:07:40.087Z,98440.34
2023-01-15T06:08:46.547Z,98447.13
2023-01-15T06:09:51.231Z,98439.06
2023-01-15T06:10:55.419Z,98445.91
2023-01-15T06:12:02.404Z,98446.03
2023-01-15T06:13:06.016Z,98448.78
2023-01-15T06:14:12.886Z,98446.03
2023-01-15T06:15:16.674Z,98445.06
2023-01-15T06:16:21.998Z,98449.31
2023-01-15T06:17:26.587Z,98443.78
2023-01-15T06:18:31.390Z,98447.03
2023-01-15T06:19:36.740Z,98450.44
2023-01-15T06:20:42.372Z,98450.31
2023-01-15T06:21:46.580Z,98444.16
2023-01-15T06:22:50.349Z,98443.44
2023-01-15T06:23:56.941Z,98446.19
2023-01-15T06:25:01.587Z,98450.53
2023-01-15T06:26:13.944Z,98444.28
2023-01-15T06:27:17.641Z,98440.81
2023-01-15T06:28:21.286Z,98438.88
2023-01-15T06:29:28.256Z,98438.75
2023-01-15T06:30:32.146Z,98438.75
2023-01-15T06:31:35.854Z,98436.81
2023-01-15T06:32:46.617Z,98434.94
2023-01-15T06:33:51.074Z,98428.81
2023-01-15T06:34:55.182Z,98428.81
2023-01-15T06:35:58.813Z,98431.31
2023-01-15T06:37:02.463Z,98427.97
2023-01-15T06:38:06.197Z,98430.34
2023-01-15T06:39:10.669Z,98432.03
2023-01-15T06:40:14.601Z,98433.72
2023-01-15T06:41:43.502Z,98426.28
2023-01-15T06:43:06.270Z,98438.69
2023-01-15T06:44:35.120Z,98436.03
2023-01-15T06:46:01.059Z,98432.56
2023-01-15T06:47:21.934Z,98425.44
2023-01-15T06:48:28.139Z,98435.06
2023-01-15T06:49:34.598Z,98429.53
2023-01-15T06:50:38.845Z,98440.03
2023-01-15T06:51:42.559Z,98436.56
2023-01-15T06:52:46.066Z,98433.91
2023-01-15T06:53:49.659Z,98431.34
2023-01-15T06:54:55.792Z,98436.56
2023-01-15T06:56:01.812Z,98425.84
2023-01-15T06:57:06.463Z,98421.25
2023-01-15T06:58:10.397Z,98419.47
2023-01-15T06:59:14.468Z,98415.00
2023-01-15T07:00:18.925Z,98415.84
2023-01-15T07:01:25.609Z,98417.66
2023-01-15T07:02:30.720Z,98419.34
2023-01-15T07:03:34.881Z,98426.34
2023-01-15T07:04:42.103Z,98416.59
2023-01-15T07:05:46.010Z,98416.59
2023-01-15T07:06:50.946Z,98411.88
2023-01-15T07:07:55.073Z,98418.03
2023-01-15T07:08:59.000Z,98418.66
2023-01-15T07:10:02.855Z,98419.38
2023-01-15T07:11:10.060Z,98414.19
2023-01-15T07:12:14.423Z,98422.03
2023-01-15T07:13:18.483Z,98421.31
2023-01-15T07:14:26.859Z,98421.19
2023-01-15T07:15:31.358Z,98414.06
2023-01-15T07:16:37.963Z,98415.03
2023-01-15T07:17:41.614Z,98412.78
2023-01-15T07:18:45.417Z,98426.59
2023-01-15T07:19:49.106Z,98419.63
2023-01-15T07:20:56.912Z,98426.47
2023-01-15T07:22:02.153Z,98411.69
2023-01-15T07:23:06.849Z,98413.16
2023-01-15T07:24:12.512Z,98420.25
2023-01-15T07:25:19.428Z,98433.38
2023-01-15T07:26:23.178Z,98427.94
2023-01-15T07:27:27.856Z,98417.34
2023-01-15T07:28:31.756Z,98415.78
2023-01-15T07:29:35.625Z,98421.09
2023-01-15T07:30:39.180Z,98420.84
2023-01-15T07:31:43.691Z,98418.06
2023-01-15T07:32:47.389Z,98420.59
2023-01-15T07:33:51.284Z,98425.16
2023-01-15T07:34:55.170Z,98408.31
2023-01-15T07:35:58.813Z,98415.28
2023-01-15T07:37:02.350Z,98416.25
2023-01-15T07:38:05.904Z,98418.91
2023-01-15T07:39:12.183Z,98412.66
2023-01-15T07:40:16.300Z,98411.72
2023-01-15T07:41:38.663Z,98410.28
2023-01-15T07:43:00.745Z,98404.22
2023-01-15T07:44:22.831Z,98415.06
2023-01-15T07:45:45.214Z,98417.47
2023-01-15T07:47:10.422Z,98416.50
2023-01-15T07:48:33.357Z,98420.63
2023-01-15T07:49:46.032Z,98418.09
2023-01-15T07:50:50.140Z,98415.19
2023-01-15T07:51:53.888Z,98414.97
2023-01-15T07:52:57.747Z,98419.44
2023-01-15T07:54:02.467Z,98415.31
2023-01-15T07:55:16.509Z,98422.19
2023-01-15T07:56:20.394Z,98428.22
2023-01-15T07:57:24.652Z,98423.16
2023-01-15T07:58:28.440Z,98417.84
2023-01-15T07:59:32.223Z,98419.19
2023-01-15T08:00:36.105Z,98420.88
2023-01-15T08:01:40.007Z,98410.38
2023-01-15T08:02:45.137Z,98422.09
2023-01-15T08:03:48.960Z,98418.47
2023-01-15T08:04:52.601Z,98413.63
2023-01-15T08:05:57.715Z,98410.63
2023-01-15T08:07:03.621Z,98417.75
2023-01-15T08:08:15.097Z,98411.47
2023-01-15T08:09:18.690Z,98412.94
2023-01-15T08:10:23.051Z,98411.97
2023-01-15T08:11:45.670Z,98405.69
2023-01-15T08:13:10.591Z,98409.06
2023-01-15T08:14:33.027Z,98407.88
2023-01-15T08:15:43.954Z,98397.97
2023-01-15T08:16:47.862Z,98401.13
2023-01-15T08:17:52.794Z,98393.88
2023-01-15T08:18:57.301Z,98396.41
2023-01-15T08:20:03.273Z,98402.78
2023-01-15T08:21:07.435Z,98395.56
2023-01-15T08:22:12.122Z,98399.75
2023-01-15T08:23:15.670Z,98393.63
2023-01-15T08:24:19.323Z,98387.13
2023-01-15T08:25:25.730Z,98396.50
2023-01-15T08:26:29.226Z,98387.34
2023-01-15T08:27:33.566Z,98398.66
2023-01-15T08:28:37.147Z,98398.41
2023-01-15T08:29:41.303Z,98388.19
2023-01-15T08:30:45.126Z,98397.72
2023-01-15T08:31:50.223Z,98390.19
2023-01-15T08:33:00.916Z,98391.91
2023-01-15T08:34:15.860Z,98387.31
2023-01-15T08:35:20.225Z,98384.28
2023-01-15T08:36:23.770Z,98381.13
2023-01-15T08:37:27.475Z,98387.25
2023-01-15T08:38:31.319Z,98383.53
2023-01-15T08:39:35.169Z,98388.72
2023-01-15T08:40:58.830Z,98384.38
2023-01-15T08:42:02.781Z,98391.09
2023-01-15T08:43:13.747Z,98387.47
2023-01-15T08:44:22.007Z,98391.56
2023-01-15T08:45:30.034Z,98381.94
2023-01-15T08:46:37.199Z,98396.75
2023-01-15T08:47:41.411Z,98390.59
2023-01-15T08:48:46.551Z,98390.47
2023-01-15T08:49:50.373Z,98389.88
2023-01-15T08:50:54.347Z,98388.66
2023-01-15T08:51:59.203Z,98380.97
2023-01-15T08:53:03.599Z,98390.72
2023-01-15T08:54:07.268Z,98385.78
2023-01-15T08:55:11.368Z,98381.31
2023-01-15T08:56:20.455Z,98390.88
2023-01-15T08:57:24.261Z,98386.63
2023-01-15T08:58:30.929Z,98390.88
2023-01-15T08:59:34.609Z,98393.50
2023-01-15T09:00:38.488Z,98384.59
2023-01-15T09:01:43.060Z,98384.44
2023-01-15T09:02:49.274Z,98378.31
2023-01-15T09:03:53.756Z,98389.13
2023-01-15T09:04:58.091Z,98380.44
2023-01-15T09:06:03.244Z,98389.72
2023-01-15T09:07:07.167Z,98381.88
2023-01-15T09:08:11.016Z,98377.16
2023-01-15T09:09:18.869Z,98386.81
2023-01-15T09:10:24.094Z,98379.94
2023-01-15T09:11:29.067Z,98377.44
2023-01-15T09:12:32.859Z,98385.50
2023-01-15T09:13:38.209Z,98371.00
2023-01-15T09:14:56.683Z,98375.47
2023-01-15T09:16:10.781Z,98382.75
2023-01-15T09:17:15.498Z,98374.50
2023-01-15T09:18:20.825Z,98377.72
2023-01-15T09:19:27.341Z,98370.88
2023-01-15T09:20:33.019Z,98373.66
2023-01-15T09:21:38.287Z,98364.59
2023-01-15T09:22:42.243Z,98361.56
2023-01-15T09:23:45.777Z,98362.28
2023-01-15T09:24:49.461Z,98356.06
2023-01-15T09:26:00.458Z,98354.94
2023-01-15T09:27:04.524Z,98352.16
2023-01-15T09:28:08.986Z,98352.91
2023-01-15T09:29:13.500Z,98357.22
2023-01-15T09:30:21.404Z,98350.47
2023-01-15T09:31:29.002Z,98351.59
2023-01-15T09:32:36.092Z,98350.88
2023-01-15T09:33:48.071Z,98349.91
2023-01-15T09:34:57.537Z,98349.06
2023-01-15T09:36:01.160Z,98344.72
2023-01-15T09:37:04.783Z,98346.78
2023-01-15T09:38:11.899Z,98345.81
2023-01-15T09:39:15.503Z,98346.94
2023-01-15T09:40:50.758Z,98346.66
2023-01-15T09:42:34.006Z,98340.50
2023-01-15T09:43:51.212Z,98342.59
2023-01-15T09:45:15.903Z,98342.25
2023-01-15T09:46:32.071Z,98346.00
2023-01-15T09:48:05.933Z,98339.59
2023-01-15T09:49:57.917Z,98339.72
2023-01-15T09:51:35.703Z,98326.97
2023-01-15T09:53:18.928Z,98333.38
2023-01-15T09:55:13.959Z,98327.34
2023-01-15T09:56:28.422Z,98326.66
2023-01-15T09:57:36.775Z,98339.06
2023-01-15T09:58:41.222Z,98333.38
2023-01-15T09:59:50.971Z,98345.56
2023-01-15T10:01:12.740Z,98330.56
2023-01-15T10:02:47.061Z,98335.88
2023-01-15T10:04:07.181Z,98337.31
2023-01-15T10:05:33.596Z,98331.38
2023-01-15T10:06:59.200Z,98328.84
2023-01-15T10:08:31.715Z,98337.53
2023-01-15T10:09:41.213Z,98334.16
2023-01-15T10:11:17.690Z,98326.91
2023-01-15T10:12:36.901Z,98335.00
2023-01-15T10:14:07.425Z,98331.38
2023-01-15T10:15:40.291Z,98327.88
2023-01-15T10:16:44.601Z,98326.44
2023-01-15T10:18:08.309Z,98331.50
2023-01-15T10:19:14.651Z,98333.91
2023-01-15T10:20:34.572Z,98326.78
2023-01-15T10:22:07.268Z,98330.72
2023-01-15T10:23:39.117Z,98333.38
2023-01-15T10:25:02.555Z,98332.03
2023-01-15T10:26:33.192Z,98325.75
2023-01-15T10:27:43.510Z,98327.06
2023-01-15T10:29:07.749Z,98331.97
2023-01-15T10:30:43.828Z,98324.88
2023-01-15T10:32:14.968Z,98326.13
2023-01-15T10:33:53.230Z,98327.72
2023-01-15T10:35:08.705Z,98331.53
2023-01-15T10:36:37.013Z,98324.72
2023-01-15T10:38:07.497Z,98324.91
2023-01-15T10:39:31.279Z,98316.28
2023-01-15T10:41:07.004Z,98327.22
2023-01-15T10:42:59.313Z,98315.31
2023-01-15T10:44:39.961Z,98323.63
2023-01-15T10:45:54.456Z,98313.56
2023-01-15T10:47:03.490Z,98330.88
2023-01-15T10:48:27.715Z,98323.75
2023-01-15T10:49:35.140Z,98314.09
2023-01-15T10:50:40.225Z,98319.13
2023-01-15T10:51:54.146Z,98321.66
2023-01-15T10:53:30.961Z,98315.41
2023-01-15T10:54:48.843Z,98317.31
2023-01-15T10:56:37.005Z,98309.78
2023-01-15T10:58:11.367Z,98311.44
2023-01-15T10:59:28.010Z,98295.75
2023-01-15T11:00:35.861Z,98304.59
2023-01-15T11:01:41.526Z,98296.19
2023-01-15T11:03:19.322Z,98291.69
2023-01-15T11:04:26.539Z,98293.25
2023-01-15T11:05:33.657Z,98290.03
2023-01-15T11:06:38.329Z,98292.22
2023-01-15T11:09:35.291Z,98281.75
2023-01-15T11:10:43.900Z,98284.94
2023-01-15T11:12:00.333Z,98274.03
2023-01-15T11:13:45.075Z,98279.22
2023-01-15T11:15:08.232Z,98280.75
2023-01-15T11:16:45.359Z,98272.50
2023-01-15T11:18:12.733Z,98276.16
2023-01-15T11:19:44.770Z,98266.94
2023-01-15T11:20:54.917Z,98267.78
2023-01-15T11:22:02.145Z,98262.47
2023-01-15T11:23:15.732Z,98266.81
2023-01-15T11:24:21.178Z,98258.16
2023-01-15T11:25:34.600Z,98264.53
2023-01-15T11:26:39.895Z,98263.59
2023-01-15T11:27:44.116Z,98262.03
2023-01-15T11:28:48.112Z,98263.00
2023-01-15T11:29:58.548Z,98265.94
2023-01-15T11:31:04.570Z,98261.47
2023-01-15T11:32:25.496Z,98269.16
2023-01-15T11:33:32.310Z,98268.84
2023-01-15T11:34:41.031Z,98262.97
2023-01-15T11:35:58.661Z,98263.53
2023-01-15T11:37:05.331Z,98266.78
2023-01-15T11:38:15.523Z,98265.09
2023-01-15T11:39:28.373Z,98262.31
2023-01-15T11:40:32.015Z,98264.69
2023-01-15T11:41:55.022Z,98263.47
2023-01-15T11:43:16.983Z,98263.72
2023-01-15T11:44:42.136Z,98269.31
2023-01-15T11:46:11.303Z,98269.75
2023-01-15T11:47:37.874Z,98265.66
2023-01-15T11:49:06.494Z,98265.53
2023-01-15T11:50:43.978Z,98268.31
2023-01-15T11:51:51.335Z,98257.78
2023-01-15T11:52:57.703Z,98262.97
2023-01-15T11:54:08.350Z,98256.41
2023-01-15T11:55:18.469Z,98253.59
2023-01-15T11:56:28.655Z,98251.94
2023-01-15T11:57:37.518Z,98248.03
2023-01-15T11:58:50.550Z,98250.53
2023-01-15T11:59:54.589Z,98249.81
2023-01-15T12:00:59.770Z,98248.03
2023-01-15T12:02:34.549Z,98252.22
2023-01-15T12:03:41.537Z,98244.09
2023-01-15T12:04:59.026Z,98244.25
2023-01-15T12:06:13.138Z,98242.16
2023-01-15T12:07:18.508Z,98239.63
2023-01-15T12:09:22.865Z,98228.97
2023-01-15T12:11:21.092Z,98234.69
2023-01-15T12:13:03.952Z,98218.41
2023-01-15T12:14:59.129Z,98223.56
2023-01-15T12:16:11.656Z,98221.63
2023-01-15T12:18:00.478Z,98228.31
2023-01-15T12:19:22.886Z,98211.94
2023-01-15T12:21:17.485Z,98214.88
2023-01-15T12:22:45.918Z,98219.88
2023-01-15T12:24:27.024Z,98216.06
2023-01-15T12:26:00.476Z,98215.47
2023-01-15T12:27:44.139Z,98222.00
2023-01-15T12:29:52.531Z,98202.53
2023-01-15T12:31:19.079Z,98205.19
2023-01-15T12:32:42.670Z,98207.41
2023-01-15T12:34:24.913Z,98205.13
2023-01-15T12:35:36.051Z,98207.06
2023-01-15T12:36:59.488Z,98203.69
2023-01-15T12:38:52.257Z,98200.16
2023-01-15T12:40:07.079Z,98196.84
2023-01-15T12:41:58.876Z,98195.69
2023-01-15T12:43:22.951Z,98203.22
2023-01-15T12:45:08.969Z,98202.03
2023-01-15T12:46:29.188Z,98204.22
2023-01-15T12:48:02.418Z,98193.16
2023-01-15T12:49:37.744Z,98194.97
2023-01-15T12:50:57.559Z,98198.34
2023-01-15T12:52:22.146Z,98197.03
2023-01-15T12:53:56.213Z,98188.75
2023-01-15T12:55:13.606Z,98188.47
2023-01-15T12:57:06.823Z,98191.25
2023-01-15T12:58:47.274Z,98183.81
2023-01-15T13:00:14.299Z,98181.56
2023-01-15T13:02:10.182Z,98180.25
2023-01-15T13:03:46.427Z,98178.56
2023-01-15T13:05:26.245Z,98171.13
2023-01-15T13:06:34.208Z,98171.00
2023-01-15T13:07:59.768Z,98171.81
2023-01-15T13:09:25.015Z,98167.88
2023-01-15T13:10:38.674Z,98159.47
2023-01-15T13:11:42.892Z,98163.66
2023-01-15T13:13:15.520Z,98160.31
2023-01-15T13:14:24.670Z,98153.22
2023-01-15T13:15:37.620Z,98154.19
2023-01-15T13:17:12.834Z,98158.88
2023-01-15T13:18:29.191Z,98162.50
2023-01-15T13:20:06.230Z,98162.63
2023-01-15T13:21:17.287Z,98160.09
2023-01-15T13:22:33.930Z,98148.75
2023-01-15T13:24:27.736Z,98152.38
2023-01-15T13:25:42.183Z,98151.81
2023-01-15T13:27:22.383Z,98148.19
2023-01-15T13:28:54.284Z,98145.53
2023-01-15T13:30:58.370Z,98149.16
2023-01-15T13:32:33.668Z,98144.22
2023-01-15T13:33:48.986Z,98153.72
2023-01-15T13:35:15.212Z,98148.06
2023-01-15T13:36:51.481Z,98143.13
2023-01-15T13:38:06.419Z,98143.97
2023-01-15T13:39:25.367Z,98143.72
2023-01-15T13:40:38.408Z,98138.91
2023-01-15T13:42:13.312Z,98142.97
2023-01-15T13:43:44.518Z,98139.00
2023-01-15T13:44:54.344Z,98145.84
2023-01-15T13:46:04.555Z,98137.66
2023-01-15T13:47:19.822Z,98133.06
2023-01-15T13:48:41.176Z,98127.06
2023-01-15T13:50:17.213Z,98137.03
2023-01-15T13:51:39.251Z,98136.06
2023-01-15T13:52:46.213Z,98137.44
2023-01-15T13:54:02.101Z,98130.56
2023-01-15T13:55:38.902Z,98135.38
2023-01-15T13:56:44.774Z,98128.13
2023-01-15T13:57:52.695Z,98130.44
2023-01-15T13:59:28.247Z,98125.53
2023-01-15T14:00:37.386Z,98129.03
2023-01-15T14:01:42.321Z,98130.00
2023-01-15T14:02:55.823Z,98128.53
2023-01-15T14:04:09.779Z,98131.19
2023-01-15T14:05:32.107Z,98134.06
2023-01-15T14:06:51.163Z,98137.69
2023-01-15T14:07:59.299Z,98139.34
2023-01-15T14:09:06.842Z,98140.31
2023-01-15T14:10:37.230Z,98142.97
2023-01-15T14:12:08.382Z,98139.97
2023-01-15T14:14:02.413Z,98136.34
2023-01-15T14:15:31.269Z,98138.16
2023-01-15T14:16:52.581Z,98133.44